Time;durP1;ratioP1;P1;durP2;ratioP2;P2;SDS_P1;SDS_P2;PMS_P1;PMS_P2;Temp;Humidity;BMP_temperature;BMP_pressure;BME280_temperature;BME280_humidity;BME280_pressure;Samples;Min_cycle;Max_cycle;Signal;HPM_P1;HPM_P2
2021/05/27 00:00:51;;;;;;;3.70;1.70;;;;;;;12.38;65.19;100137.80;102794;1117;80542;-61
2021/05/27 00:02:57;;;;;;;4.30;1.60;;;;;;;12.36;65.64;100152.59;103016;1114;80214;-60
2021/05/27 00:05:04;;;;;;;2.80;1.40;;;;;;;12.31;65.92;100169.44;103076;1114;80878;-60
2021/05/27 00:07:10;;;;;;;3.20;1.70;;;;;;;12.35;66.07;100178.84;103097;1114;81093;-60
2021/05/27 00:09:16;;;;;;;4.40;2.10;;;;;;;12.38;66.23;100170.30;103080;1114;81054;-59
2021/05/27 00:11:21;;;;;;;3.80;2.30;;;;;;;12.38;66.39;100175.72;102798;1117;81111;-60
2021/05/27 00:13:27;;;;;;;4.30;2.00;;;;;;;12.35;66.74;100168.01;103026;1114;81038;-59
2021/05/27 00:15:33;;;;;;;5.00;1.90;;;;;;;12.30;66.79;100153.41;103018;1114;81815;-60
2021/05/27 00:17:39;;;;;;;4.80;1.70;;;;;;;12.32;66.61;100146.74;103071;1114;80550;-59
2021/05/27 00:19:45;;;;;;;4.20;1.70;;;;;;;12.38;66.83;100154.05;103035;1114;80692;-60
2021/05/27 00:21:51;;;;;;;2.90;1.70;;;;;;;12.34;67.06;100160.91;103055;1114;81849;-59
2021/05/27 00:23:59;;;;;;;5.30;2.20;;;;;;;12.31;67.10;100153.19;103072;1114;81774;-60
2021/05/27 00:26:05;;;;;;;3.10;1.70;;;;;;;12.30;67.34;100151.55;103061;1114;82097;-58
2021/05/27 00:28:13;;;;;;;4.80;2.30;;;;;;;12.26;67.33;100130.47;103056;1114;82044;-60
2021/05/27 00:30:21;;;;;;;2.90;1.50;;;;;;;12.24;67.49;100130.70;102792;1117;81328;-62
2021/05/27 00:32:27;;;;;;;3.60;1.80;;;;;;;12.27;67.87;100119.45;103073;1114;81130;-59
2021/05/27 00:34:33;;;;;;;3.20;1.90;;;;;;;12.32;67.80;100110.70;103071;1114;80054;-60
2021/05/27 00:36:38;;;;;;;4.70;2.00;;;;;;;12.28;68.07;100112.13;103051;1114;81213;-60
2021/05/27 00:38:44;;;;;;;4.50;1.90;;;;;;;12.27;68.35;100107.78;103062;1114;80926;-61
2021/05/27 00:40:53;;;;;;;3.50;1.90;;;;;;;12.28;68.51;100115.68;103061;1114;81211;-61
2021/05/27 00:42:59;;;;;;;4.60;2.30;;;;;;;12.23;68.84;100114.63;103059;1114;80620;-61
2021/05/27 00:45:08;;;;;;;5.10;2.20;;;;;;;12.18;69.02;100119.84;103085;1114;81203;-61
2021/05/27 00:47:14;;;;;;;2.70;1.50;;;;;;;12.16;69.01;100125.48;103090;1114;81455;-61
2021/05/27 00:49:20;;;;;;;4.60;1.80;;;;;;;12.13;69.21;100134.02;103075;1114;80264;-61
2021/05/27 00:51:27;;;;;;;4.30;2.30;;;;;;;12.09;69.26;100148.98;103053;1114;81430;-60
2021/05/27 00:53:33;;;;;;;3.00;2.00;;;;;;;12.03;69.59;100154.41;103075;1114;82621;-61
2021/05/27 00:55:39;;;;;;;4.90;2.00;;;;;;;12.07;69.47;100150.23;103062;1114;81731;-60
2021/05/27 00:57:48;;;;;;;6.00;2.00;;;;;;;12.06;69.99;100154.00;103074;1114;80987;-59
2021/05/27 00:59:53;;;;;;;5.40;1.90;;;;;;;12.05;70.01;100152.32;103094;1114;81063;-58
2021/05/27 01:02:02;;;;;;;4.50;2.20;;;;;;;12.05;69.98;100141.48;103096;1114;81437;-58
2021/05/27 01:04:08;;;;;;;5.70;2.20;;;;;;;12.09;70.23;100132.73;103066;1114;81406;-61
2021/05/27 01:06:17;;;;;;;4.20;2.00;;;;;;;12.08;70.24;100114.84;102787;1117;81114;-61
2021/05/27 01:08:22;;;;;;;4.20;1.90;;;;;;;12.11;70.18;100092.77;102828;1117;81149;-59
2021/05/27 01:10:28;;;;;;;3.40;1.80;;;;;;;12.14;70.61;100086.91;103071;1114;80806;-59
2021/05/27 01:12:35;;;;;;;3.00;2.10;;;;;;;12.12;70.59;100083.59;103076;1114;81465;-59
2021/05/27 01:17:08;;;;;;;3.90;2.00;;;;;;;12.16;70.33;100101.11;103080;1114;81686;-59
2021/05/27 01:19:14;;;;;;;4.70;2.00;;;;;;;12.15;70.47;100107.55;103088;1114;81660;-61
2021/05/27 01:21:22;;;;;;;3.30;1.90;;;;;;;12.22;70.36;100111.09;102765;1117;81393;-61
2021/05/27 01:23:30;;;;;;;2.90;1.70;;;;;;;12.18;70.72;100120.68;103050;1114;80630;-59
2021/05/27 01:25:38;;;;;;;3.10;1.90;;;;;;;12.19;70.79;100122.36;103072;1114;81724;-59
2021/05/27 01:27:43;;;;;;;4.00;2.10;;;;;;;12.12;70.87;100116.08;103028;1114;80025;-61
2021/05/27 01:29:56;;;;;;;4.20;2.10;;;;;;;12.11;71.10;100113.59;103081;1114;81986;-61
2021/05/27 01:32:01;;;;;;;5.40;2.10;;;;;;;12.09;71.19;100112.95;103054;1114;82737;-61
2021/05/27 01:34:09;;;;;;;3.90;2.10;;;;;;;12.06;71.22;100116.91;103057;1114;80446;-59
2021/05/27 01:36:15;;;;;;;5.90;2.60;;;;;;;12.08;71.32;100125.67;103057;1114;80845;-59
2021/05/27 01:38:23;;;;;;;3.30;2.10;;;;;;;12.07;71.47;100121.29;103074;1114;82422;-59
2021/05/27 01:40:29;;;;;;;3.60;2.30;;;;;;;12.09;71.39;100138.16;103085;1114;81405;-59
2021/05/27 01:42:35;;;;;;;3.60;2.20;;;;;;;12.08;71.67;100141.08;103072;1114;81990;-61
2021/05/27 01:44:42;;;;;;;4.00;2.60;;;;;;;12.08;71.85;100147.34;103095;1114;79959;-61
2021/05/27 01:46:51;;;;;;;3.20;1.90;;;;;;;12.07;71.79;100145.66;103065;1114;82060;-61
2021/05/27 01:48:56;;;;;;;3.60;2.40;;;;;;;12.04;71.76;100146.06;103057;1114;80610;-59
2021/05/27 01:51:02;;;;;;;4.00;2.60;;;;;;;12.05;71.99;100147.74;103086;1114;81002;-60
2021/05/27 01:53:08;;;;;;;3.60;2.20;;;;;;;12.05;72.01;100138.78;103075;1114;82095;-60
2021/05/27 01:55:16;;;;;;;5.20;2.60;;;;;;;12.03;72.03;100138.16;103074;1114;81077;-60
2021/05/27 01:57:24;;;;;;;4.70;2.40;;;;;;;12.03;72.00;100146.28;103026;1114;81973;-59
2021/05/27 01:59:30;;;;;;;5.20;2.60;;;;;;;12.03;72.16;100141.67;103049;1114;82002;-61
2021/05/27 02:01:38;;;;;;;3.80;2.50;;;;;;;12.03;72.06;100141.67;103021;1114;82657;-61
2021/05/27 02:03:44;;;;;;;4.30;2.60;;;;;;;11.99;72.32;100135.02;103088;1114;80982;-61
2021/05/27 02:05:50;;;;;;;4.10;2.40;;;;;;;12.02;72.49;100137.32;103074;1114;80668;-61
2021/05/27 02:07:55;;;;;;;3.80;2.40;;;;;;;12.01;72.47;100141.05;103054;1114;80505;-61
2021/05/27 02:10:01;;;;;;;5.90;2.40;;;;;;;11.97;72.33;100130.85;103051;1114;81894;-61
2021/05/27 02:12:09;;;;;;;3.20;2.40;;;;;;;11.97;72.41;100128.98;103044;1114;81836;-61
2021/05/27 02:14:19;;;;;;;4.00;2.50;;;;;;;11.93;72.57;100135.83;103046;1114;80779;-61
2021/05/27 02:16:25;;;;;;;3.80;2.30;;;;;;;11.92;72.71;100130.64;103080;1114;81336;-61
2021/05/27 02:18:30;;;;;;;4.90;2.20;;;;;;;11.86;72.64;100126.88;103040;1114;81901;-60
2021/05/27 02:20:36;;;;;;;4.70;2.60;;;;;;;11.84;72.88;100135.17;103059;1114;82428;-59
2021/05/27 02:22:42;;;;;;;5.60;2.40;;;;;;;11.77;72.74;100134.34;103037;1114;81510;-59
2021/05/27 02:24:48;;;;;;;3.60;2.40;;;;;;;11.73;72.96;100137.63;103048;1114;80700;-58
2021/05/27 02:26:53;;;;;;;4.10;2.30;;;;;;;11.74;73.16;100139.31;102751;1117;80682;-59
2021/05/27 02:29:00;;;;;;;4.20;2.20;;;;;;;11.70;73.05;100129.95;103022;1114;81422;-60
2021/05/27 02:31:06;;;;;;;2.80;2.10;;;;;;;11.68;73.14;100135.52;103016;1114;80837;-59
2021/05/27 02:33:12;;;;;;;4.30;2.50;;;;;;;11.71;73.21;100137.02;103077;1114;79941;-59
2021/05/27 02:35:17;;;;;;;3.90;2.20;;;;;;;11.69;73.05;100131.81;102760;1117;80068;-59
2021/05/27 02:37:24;;;;;;;3.90;2.20;;;;;;;11.68;73.30;100130.10;102774;1116;81293;-59
2021/05/27 02:39:30;;;;;;;5.30;2.20;;;;;;;11.70;73.48;100119.13;102800;1117;80096;-61
2021/05/27 02:41:35;;;;;;;5.20;2.20;;;;;;;11.72;73.29;100114.34;102759;1117;80719;-61
2021/05/27 02:43:41;;;;;;;3.60;2.40;;;;;;;11.76;73.46;100115.58;102791;1117;80922;-59
2021/05/27 02:45:47;;;;;;;2.70;2.00;;;;;;;11.77;73.37;100122.67;102818;1117;81683;-59
2021/05/27 02:47:52;;;;;;;4.40;2.10;;;;;;;11.79;73.36;100120.59;102753;1117;80967;-60
2021/05/27 02:49:58;;;;;;;2.90;2.00;;;;;;;11.77;73.37;100112.69;102778;1117;81944;-59
2021/05/27 02:52:04;;;;;;;3.90;2.20;;;;;;;11.76;73.47;100126.41;102787;1117;81135;-60
2021/05/27 02:54:10;;;;;;;3.50;2.30;;;;;;;11.73;73.64;100122.23;102805;1117;81133;-60
2021/05/27 02:56:16;;;;;;;3.00;2.10;;;;;;;11.72;73.63;100117.05;102762;1117;81630;-59
2021/05/27 02:58:22;;;;;;;3.90;2.30;;;;;;;11.76;73.78;100120.99;102788;1117;82580;-61
2021/05/27 03:00:28;;;;;;;4.40;2.70;;;;;;;11.79;73.71;100115.17;102793;1117;80204;-61
2021/05/27 03:02:33;;;;;;;2.60;1.90;;;;;;;11.79;73.77;100118.72;102786;1117;81160;-60
2021/05/27 03:04:39;;;;;;;3.80;2.30;;;;;;;11.76;73.78;100123.70;102782;1116;81551;-59
2021/05/27 03:06:45;;;;;;;4.80;2.20;;;;;;;11.75;73.86;100122.05;102813;1117;82399;-59
2021/05/27 03:08:50;;;;;;;3.70;2.30;;;;;;;11.76;74.09;100120.99;102772;1117;81970;-61
2021/05/27 03:10:56;;;;;;;5.30;2.40;;;;;;;11.77;74.05;100119.97;102794;1117;80007;-61
2021/05/27 03:13:02;;;;;;;4.30;2.10;;;;;;;11.75;74.16;100117.48;102803;1117;81205;-59
2021/05/27 03:15:10;;;;;;;3.90;2.30;;;;;;;11.81;74.11;100118.53;102805;1117;80618;-59
2021/05/27 03:17:16;;;;;;;4.20;2.40;;;;;;;11.85;74.18;100119.78;102781;1117;81092;-60
2021/05/27 03:19:22;;;;;;;4.30;2.00;;;;;;;11.86;74.13;100121.45;102795;1117;81915;-61
2021/05/27 03:21:30;;;;;;;3.70;2.20;;;;;;;11.89;74.38;100121.05;102779;1117;81158;-61
2021/05/27 03:23:36;;;;;;;4.30;2.60;;;;;;;11.92;74.37;100119.81;102767;1117;80734;-61
2021/05/27 03:25:42;;;;;;;5.50;2.20;;;;;;;11.95;74.40;100122.92;102798;1117;81267;-61
2021/05/27 03:27:48;;;;;;;2.30;1.90;;;;;;;12.03;74.48;100124.63;102815;1117;81668;-61
2021/05/27 03:29:54;;;;;;;2.70;1.90;;;;;;;12.06;74.38;100124.22;102797;1117;81556;-61
2021/05/27 03:31:59;;;;;;;2.70;1.80;;;;;;;12.10;74.32;100129.00;102770;1117;81015;-61
2021/05/27 03:34:05;;;;;;;2.30;2.00;;;;;;;12.16;74.50;100128.19;102815;1117;81955;-60
2021/05/27 03:36:11;;;;;;;5.10;2.20;;;;;;;12.17;74.39;100115.45;102796;1117;81566;-59
2021/05/27 03:38:17;;;;;;;4.20;2.30;;;;;;;12.18;74.35;100117.97;102801;1117;80804;-59
2021/05/27 03:40:22;;;;;;;3.50;2.00;;;;;;;12.19;74.41;100124.23;102746;1117;79867;-59
2021/05/27 03:42:31;;;;;;;3.50;2.20;;;;;;;12.17;74.39;100120.87;102777;1117;81737;-60
2021/05/27 03:44:37;;;;;;;3.70;1.90;;;;;;;12.20;74.49;100115.88;102805;1117;80024;-60
2021/05/27 03:46:43;;;;;;;4.80;2.50;;;;;;;12.29;74.50;100116.52;102793;1117;80095;-60
2021/05/27 03:48:48;;;;;;;3.70;2.30;;;;;;;12.30;74.60;100118.20;102794;1117;82622;-60
2021/05/27 03:50:54;;;;;;;3.70;2.20;;;;;;;12.31;74.53;100120.69;102771;1117;81595;-60
2021/05/27 03:53:00;;;;;;;4.20;2.00;;;;;;;12.35;74.29;100121.11;102824;1117;81919;-60
2021/05/27 03:55:11;;;;;;;3.50;1.90;;;;;;;12.41;74.24;100126.52;102830;1117;81238;-60
2021/05/27 03:57:16;;;;;;;5.20;1.80;;;;;;;12.47;74.20;100124.05;102810;1117;79817;-60
2021/05/27 04:01:46;;;;;;;3.30;2.10;;;;;;;12.61;74.12;100126.52;102819;1117;80930;-59
2021/05/27 04:08:41;;;;;;;4.10;1.70;;;;;;;12.95;73.46;100129.00;102737;1117;81275;-60
2021/05/27 04:10:48;;;;;;;2.70;1.60;;;;;;;13.03;73.46;100136.08;102828;1117;80852;-61
2021/05/27 04:12:53;;;;;;;2.50;1.60;;;;;;;13.06;73.28;100132.95;102803;1117;81599;-61
2021/05/27 04:17:24;;;;;;;4.00;1.80;;;;;;;13.15;73.04;100134.42;102743;1117;82059;-61
2021/05/27 04:19:33;;;;;;;3.70;1.60;;;;;;;13.18;72.89;100128.58;102777;1117;80911;-61
2021/05/27 04:21:39;;;;;;;3.80;2.00;;;;;;;13.19;72.53;100141.08;102788;1117;81982;-61
2021/05/27 04:23:45;;;;;;;3.50;1.70;;;;;;;13.29;72.47;100138.78;102849;1117;80886;-61
2021/05/27 04:25:51;;;;;;;3.60;1.60;;;;;;;13.44;72.40;100142.05;102811;1117;80589;-61
2021/05/27 04:27:58;;;;;;;5.60;1.80;;;;;;;13.56;72.08;100143.06;102808;1117;81854;-61
2021/05/27 04:30:15;;;;;;;3.50;1.80;;;;;;;13.68;71.56;100142.39;102797;1117;81256;-61
2021/05/27 04:34:45;;;;;;;3.50;1.70;;;;;;;13.67;71.21;100148.86;102796;1117;81841;-58
2021/05/27 04:36:51;;;;;;;4.40;1.70;;;;;;;13.81;71.08;100148.59;102806;1117;80477;-59
2021/05/27 04:38:56;;;;;;;3.70;1.90;;;;;;;14.15;71.24;100139.19;102786;1117;80710;-60
2021/05/27 04:41:03;;;;;;;3.90;1.70;;;;;;;14.49;70.68;100143.38;102791;1117;80978;-61
2021/05/27 04:43:09;;;;;;;2.90;1.60;;;;;;;15.14;70.14;100140.06;102823;1117;81081;-61
2021/05/27 04:45:18;;;;;;;2.90;1.90;;;;;;;16.05;70.23;100139.19;102785;1117;82380;-61
2021/05/27 04:47:23;;;;;;;2.70;1.60;;;;;;;17.77;69.27;100147.78;102810;1117;81309;-61
2021/05/27 04:49:29;;;;;;;3.30;2.10;;;;;;;19.09;67.10;100142.77;102806;1117;81752;-61
2021/05/27 04:51:34;;;;;;;2.80;1.40;;;;;;;19.43;64.35;100137.00;102803;1117;80555;-62
2021/05/27 04:53:42;;;;;;;4.30;1.70;;;;;;;19.56;63.36;100148.68;102794;1117;81070;-61
2021/05/27 04:55:50;;;;;;;4.80;1.50;;;;;;;20.26;62.57;100146.80;102792;1117;81422;-60
2021/05/27 04:58:00;;;;;;;3.70;1.70;;;;;;;22.03;59.95;100143.36;102820;1117;81538;-62
2021/05/27 05:00:09;;;;;;;3.10;1.40;;;;;;;23.73;55.32;100145.59;102794;1117;81364;-62
2021/05/27 05:02:15;;;;;;;2.60;1.50;;;;;;;24.53;54.99;100141.59;102831;1117;81685;-62
2021/05/27 05:04:21;;;;;;;4.00;2.00;;;;;;;24.57;52.99;100146.24;102834;1117;82398;-62
2021/05/27 05:06:26;;;;;;;2.30;1.70;;;;;;;23.80;51.47;100143.34;102759;1117;82214;-59
2021/05/27 05:08:32;;;;;;;2.80;1.50;;;;;;;22.74;50.86;100149.84;102793;1117;80162;-59
2021/05/27 05:10:40;;;;;;;2.80;1.70;;;;;;;21.80;51.19;100142.98;102797;1117;81451;-59
2021/05/27 05:12:47;;;;;;;4.80;1.90;;;;;;;21.10;52.10;100155.23;102798;1117;81872;-62
2021/05/27 05:14:53;;;;;;;2.90;1.40;;;;;;;20.69;52.17;100158.72;102828;1117;80976;-62
2021/05/27 05:16:58;;;;;;;3.90;1.80;;;;;;;20.37;52.30;100151.30;102824;1117;80879;-60
2021/05/27 05:19:04;;;;;;;3.00;1.70;;;;;;;20.15;52.13;100155.97;102794;1117;80895;-61
2021/05/27 05:21:10;;;;;;;6.20;1.70;;;;;;;20.25;52.39;100158.84;102763;1117;81179;-62
2021/05/27 05:23:16;;;;;;;5.10;1.90;;;;;;;20.64;52.36;100151.27;102800;1117;81150;-62
2021/05/27 05:25:28;;;;;;;3.30;1.90;;;;;;;21.16;51.55;100141.28;102774;1117;81629;-61
2021/05/27 05:27:34;;;;;;;2.60;1.40;;;;;;;21.71;50.83;100143.50;102809;1117;81318;-60
2021/05/27 05:29:40;;;;;;;2.60;1.70;;;;;;;21.85;49.94;100152.09;102777;1117;81692;-59
2021/05/27 05:31:46;;;;;;;3.90;1.60;;;;;;;21.39;49.99;100151.05;102786;1117;81192;-61
2021/05/27 05:33:55;;;;;;;2.30;1.50;;;;;;;20.97;49.70;100153.75;102810;1117;82602;-62
2021/05/27 05:36:00;;;;;;;2.70;2.10;;;;;;;20.42;50.27;100145.86;102821;1117;81316;-61
2021/05/27 05:38:06;;;;;;;3.10;1.80;;;;;;;19.98;50.66;100147.83;102793;1117;81445;-60
2021/05/27 05:40:16;;;;;;;5.10;1.60;;;;;;;19.73;50.87;100154.91;102836;1117;81196;-59
2021/05/27 05:42:24;;;;;;;3.70;1.70;;;;;;;19.36;51.34;100157.41;102809;1117;81649;-59
2021/05/27 05:44:30;;;;;;;2.90;1.60;;;;;;;19.05;51.63;100161.61;102778;1117;81676;-59
2021/05/27 05:46:35;;;;;;;2.40;1.60;;;;;;;18.74;52.41;100178.60;102933;1108;80160;-59
2021/05/27 05:48:41;;;;;;;3.00;1.50;;;;;;;18.61;52.72;100174.29;102816;1117;80156;-59
2021/05/27 05:50:48;;;;;;;2.70;1.40;;;;;;;18.92;53.12;100172.06;102774;1117;81719;-59
2021/05/27 05:52:54;;;;;;;5.50;1.70;;;;;;;19.83;52.25;100172.31;102794;1117;79782;-59
2021/05/27 05:54:59;;;;;;;2.20;1.30;;;;;;;20.99;51.30;100164.45;102781;1117;80976;-59
2021/05/27 05:59:20;;;;;;;2.90;1.70;;;;;;;20.72;49.59;100180.99;102862;1117;80870;-62
2021/05/27 06:01:26;;;;;;;3.80;1.50;;;;;;;21.47;49.77;100172.53;102767;1117;80557;-61
2021/05/27 06:03:33;;;;;;;3.20;1.70;;;;;;;22.41;48.18;100177.89;102809;1117;80309;-62
2021/05/27 06:05:39;;;;;;;2.00;1.40;;;;;;;22.80;47.60;100173.54;102790;1117;80988;-61
2021/05/27 06:07:45;;;;;;;3.10;1.60;;;;;;;23.70;46.20;100163.53;102834;1117;81037;-59
2021/05/27 06:09:51;;;;;;;2.70;1.70;;;;;;;24.24;45.29;100173.80;102831;1117;81998;-59
2021/05/27 06:11:57;;;;;;;2.40;1.60;;;;;;;25.51;44.39;100167.02;102781;1117;81752;-59
2021/05/27 06:14:03;;;;;;;2.90;1.40;;;;;;;26.96;42.31;100165.32;102717;1117;80514;-59
2021/05/27 06:16:09;;;;;;;2.10;1.40;;;;;;;28.16;40.60;100161.36;102772;1117;81310;-60
2021/05/27 06:18:16;;;;;;;3.30;1.70;;;;;;;28.85;37.82;100167.56;102771;1117;80240;-60
2021/05/27 06:20:23;;;;;;;2.90;1.40;;;;;;;29.17;37.83;100159.77;102803;1117;81825;-59
2021/05/27 06:22:27;;;;;;;3.30;1.30;;;;;;;29.76;36.89;100166.82;102851;1117;80508;-60
2021/05/27 06:24:32;;;;;;;2.50;1.40;;;;;;;30.38;36.01;100166.72;102753;1117;81817;-59
2021/05/27 06:26:37;;;;;;;2.90;1.20;;;;;;;30.61;34.53;100159.83;102758;1117;81566;-60
2021/05/27 06:28:42;;;;;;;3.10;1.20;;;;;;;31.14;33.54;100155.87;102822;1117;82336;-60
2021/05/27 06:30:46;;;;;;;2.50;1.40;;;;;;;31.42;32.98;100160.73;102777;1117;80779;-59
2021/05/27 06:32:52;;;;;;;2.90;1.60;;;;;;;31.06;32.12;100160.32;102786;1117;82359;-59
2021/05/27 06:34:56;;;;;;;2.20;1.50;;;;;;;30.51;32.47;100160.16;102785;1117;81864;-59
2021/05/27 06:37:01;;;;;;;2.40;1.40;;;;;;;30.54;32.29;100153.94;102779;1117;80185;-59
2021/05/27 06:39:09;;;;;;;2.60;1.40;;;;;;;30.80;32.31;100157.52;102819;1117;82491;-60
2021/05/27 06:41:15;;;;;;;3.00;1.50;;;;;;;29.72;32.49;100165.80;102781;1117;80423;-59
2021/05/27 06:43:20;;;;;;;2.10;1.40;;;;;;;30.02;32.86;100161.38;102819;1117;81471;-59
2021/05/27 06:45:27;;;;;;;2.10;1.30;;;;;;;31.03;32.10;100160.16;102787;1117;82077;-58
2021/05/27 06:47:32;;;;;;;2.80;1.30;;;;;;;31.60;30.54;100161.50;102768;1117;80415;-60
2021/05/27 06:49:37;;;;;;;2.40;1.70;;;;;;;30.75;30.73;100156.87;102786;1117;80527;-60
2021/05/27 06:51:44;;;;;;;1.90;1.40;;;;;;;30.38;30.70;100167.52;102776;1117;80717;-60
2021/05/27 06:53:50;;;;;;;3.00;1.50;;;;;;;29.95;31.50;100161.01;102827;1118;82154;-59
2021/05/27 06:55:58;;;;;;;2.20;1.70;;;;;;;28.57;31.45;100175.16;102807;1117;80850;-59
2021/05/27 06:58:03;;;;;;;2.30;1.50;;;;;;;27.61;33.08;100176.39;102802;1117;81818;-59
2021/05/27 07:00:11;;;;;;;4.00;2.00;;;;;;;27.15;33.54;100174.42;102797;1117;81083;-59
2021/05/27 07:02:19;;;;;;;2.50;1.70;;;;;;;27.84;34.08;100184.52;102789;1117;81527;-59
2021/05/27 07:04:23;;;;;;;1.70;1.20;;;;;;;28.33;33.16;100178.22;102802;1117;81574;-60
2021/05/27 07:06:28;;;;;;;2.60;1.50;;;;;;;29.06;32.89;100182.63;102759;1117;81547;-60
2021/05/27 07:08:39;;;;;;;2.60;1.50;;;;;;;29.86;31.75;100184.42;102826;1117;81872;-60
2021/05/27 07:10:44;;;;;;;2.90;1.30;;;;;;;29.89;31.10;100183.78;102783;1117;81330;-60
2021/05/27 07:12:52;;;;;;;2.40;1.40;;;;;;;30.20;31.64;100178.94;102806;1117;80656;-60
2021/05/27 07:14:57;;;;;;;1.80;1.40;;;;;;;29.88;30.75;100184.91;102813;1117;82085;-60
2021/05/27 07:17:04;;;;;;;3.60;1.40;;;;;;;29.93;30.55;100181.98;102776;1117;82606;-60
2021/05/27 07:19:09;;;;;;;2.50;1.30;;;;;;;29.23;30.77;100186.36;102768;1117;81022;-59
2021/05/27 07:21:14;;;;;;;2.40;1.20;;;;;;;27.92;31.22;100182.97;102818;1117;81497;-59
2021/05/27 07:23:18;;;;;;;3.00;1.90;;;;;;;26.76;32.85;100191.39;102810;1117;82067;-59
2021/05/27 07:25:25;;;;;;;2.50;1.40;;;;;;;26.89;33.77;100192.63;102798;1117;81986;-59
2021/05/27 07:27:30;;;;;;;3.10;1.60;;;;;;;27.07;33.38;100188.98;102816;1116;80807;-59
2021/05/27 07:29:34;;;;;;;1.80;1.30;;;;;;;26.43;33.53;100191.61;102791;1117;79838;-59
2021/05/27 07:31:39;;;;;;;2.00;1.40;;;;;;;26.33;33.93;100206.45;102802;1117;81045;-58
2021/05/27 07:33:43;;;;;;;2.20;1.30;;;;;;;25.41;34.18;100207.77;102818;1117;81512;-59
2021/05/27 07:35:48;;;;;;;2.70;1.00;;;;;;;24.61;35.10;100216.36;102783;1117;81999;-58
2021/05/27 07:37:53;;;;;;;4.20;2.20;;;;;;;23.98;35.30;100215.28;102801;1117;80548;-59
2021/05/27 07:39:58;;;;;;;1.40;1.00;;;;;;;24.10;36.33;100216.92;102801;1117;80318;-59
2021/05/27 07:42:06;;;;;;;2.60;1.30;;;;;;;23.94;36.26;100221.65;102779;1117;82144;-58
2021/05/27 07:44:10;;;;;;;1.50;1.10;;;;;;;24.70;37.00;100229.56;102775;1117;81612;-60
2021/05/27 07:46:15;;;;;;;2.40;1.30;;;;;;;25.82;36.68;100231.16;102788;1117;80574;-59
2021/05/27 07:48:20;;;;;;;2.20;1.00;;;;;;;26.85;34.95;100222.06;102804;1117;81149;-58
2021/05/27 07:50:25;;;;;;;1.60;1.10;;;;;;;27.35;34.59;100218.45;102788;1117;81133;-58
2021/05/27 07:52:30;;;;;;;1.50;1.10;;;;;;;27.22;33.58;100219.22;102790;1117;80829;-58
2021/05/27 07:54:34;;;;;;;2.80;0.90;;;;;;;26.58;33.71;100213.58;102784;1117;81005;-58
2021/05/27 07:56:39;;;;;;;2.40;1.00;;;;;;;26.27;33.95;100224.25;102761;1118;80654;-58
2021/05/27 07:58:44;;;;;;;1.90;1.10;;;;;;;26.68;33.51;100227.27;102777;1117;80706;-59
2021/05/27 08:00:49;;;;;;;1.50;0.90;;;;;;;27.67;33.80;100219.56;102794;1117;81747;-60
2021/05/27 08:02:54;;;;;;;2.10;0.70;;;;;;;27.83;32.58;100218.13;102789;1117;81184;-59
2021/05/27 08:05:00;;;;;;;3.20;0.80;;;;;;;27.79;32.15;100222.66;102785;1117;81860;-58
2021/05/27 08:07:06;;;;;;;1.40;0.90;;;;;;;27.87;32.62;100222.78;102805;1117;80676;-58
2021/05/27 08:09:12;;;;;;;1.90;1.00;;;;;;;28.85;32.35;100228.75;102781;1117;82459;-60
2021/05/27 08:11:18;;;;;;;2.00;0.80;;;;;;;29.23;30.90;100224.49;102748;1117;80231;-60
2021/05/27 08:13:24;;;;;;;1.90;0.80;;;;;;;29.38;30.29;100237.20;102812;1117;82371;-58
2021/05/27 08:15:30;;;;;;;1.10;0.70;;;;;;;30.05;29.84;100238.72;102802;1117;81577;-58
2021/05/27 08:17:36;;;;;;;1.30;1.00;;;;;;;30.31;29.54;100245.21;102813;1117;81942;-60
2021/05/27 08:19:42;;;;;;;1.20;0.80;;;;;;;30.58;29.13;100238.56;102801;1117;81555;-60
2021/05/27 08:21:48;;;;;;;1.70;0.70;;;;;;;30.10;27.80;100244.17;102768;1118;81370;-60
2021/05/27 08:23:54;;;;;;;2.80;0.80;;;;;;;29.51;28.47;100247.44;102814;1117;82099;-60
2021/05/27 08:25:59;;;;;;;1.20;0.90;;;;;;;29.43;30.04;100249.03;102777;1117;81185;-58
2021/05/27 08:28:06;;;;;;;1.40;0.70;;;;;;;30.16;28.93;100247.63;102804;1117;81109;-60
2021/05/27 08:30:13;;;;;;;1.30;0.80;;;;;;;30.53;29.22;100241.52;102793;1117;80199;-60
2021/05/27 08:32:19;;;;;;;1.30;0.70;;;;;;;30.96;28.10;100245.19;102818;1117;81335;-59
2021/05/27 08:34:25;;;;;;;1.30;0.70;;;;;;;31.33;26.90;100240.89;102812;1117;80156;-58
2021/05/27 08:36:31;;;;;;;2.10;0.70;;;;;;;29.74;26.91;100258.23;102784;1117;80996;-58
2021/05/27 08:38:37;;;;;;;2.10;0.90;;;;;;;28.19;28.53;100259.93;102765;1117;81846;-62
2021/05/27 08:40:43;;;;;;;1.20;0.70;;;;;;;27.73;29.58;100254.42;102841;1117;81073;-58
2021/05/27 08:42:50;;;;;;;1.40;0.80;;;;;;;27.70;29.60;100255.86;102788;1117;80888;-58
2021/05/27 08:44:59;;;;;;;1.10;0.80;;;;;;;28.06;29.73;100250.48;102795;1117;81567;-58
2021/05/27 08:47:05;;;;;;;1.70;0.70;;;;;;;28.49;29.05;100251.78;102802;1117;80656;-58
2021/05/27 08:49:12;;;;;;;3.50;0.90;;;;;;;28.14;29.93;100252.53;102814;1118;82301;-60
2021/05/27 08:51:19;;;;;;;1.50;0.70;;;;;;;27.65;29.15;100260.69;102813;1117;81103;-60
2021/05/27 08:53:25;;;;;;;0.60;0.50;;;;;;;27.10;28.78;100266.03;102793;1117;81327;-59
2021/05/27 08:55:32;;;;;;;1.30;0.80;;;;;;;26.35;29.18;100271.51;102828;1117;81093;-59
2021/05/27 08:57:39;;;;;;;2.00;1.00;;;;;;;25.59;30.56;100279.81;102825;1117;81516;-59
2021/05/27 08:59:45;;;;;;;1.50;0.70;;;;;;;25.77;31.53;100272.70;102793;1117;82397;-59
2021/05/27 09:02:06;;;;;;;1.50;0.70;;;;;;;26.42;31.65;100270.33;102834;1117;81903;-59
2021/05/27 09:04:24;;;;;;;0.80;0.60;;;;;;;26.20;30.68;100268.94;102829;1117;80701;-59
2021/05/27 09:06:30;;;;;;;1.00;0.80;;;;;;;26.09;31.48;100281.22;102792;1117;80480;-59
2021/05/27 09:08:38;;;;;;;2.60;1.00;;;;;;;26.10;31.63;100285.63;102816;1117;81281;-57
2021/05/27 09:10:47;;;;;;;2.00;0.60;;;;;;;26.74;31.85;100264.88;102784;1117;81508;-58
2021/05/27 09:12:53;;;;;;;2.00;0.80;;;;;;;26.76;31.08;100274.55;102808;1117;81385;-60
2021/05/27 09:15:00;;;;;;;1.20;0.60;;;;;;;26.13;30.78;100276.77;102784;1117;81207;-59
2021/05/27 09:17:06;;;;;;;1.00;0.60;;;;;;;25.45;30.90;100283.50;102776;1117;81427;-60
2021/05/27 09:19:19;;;;;;;1.80;0.90;;;;;;;24.95;31.44;100290.23;102788;1117;81985;-59
2021/05/27 09:21:37;;;;;;;2.00;0.90;;;;;;;24.07;32.40;100282.59;102749;1117;81660;-58
2021/05/27 09:23:50;;;;;;;2.30;0.80;;;;;;;24.24;33.89;100279.53;102795;1117;82459;-59
2021/05/27 09:25:58;;;;;;;;;;;;;;;24.16;33.56;100287.57;102776;1117;79924;-59
2021/05/27 09:28:08;;;;;;;1.80;0.60;;;;;;;23.56;33.56;100300.36;102795;1117;81284;-58
2021/05/27 09:30:17;;;;;;;2.00;0.60;;;;;;;23.50;34.06;100295.95;102772;1117;81290;-57
2021/05/27 09:32:23;;;;;;;2.90;0.70;;;;;;;23.44;34.85;100308.08;102789;1117;81778;-59
2021/05/27 09:34:44;;;;;;;2.10;0.50;;;;;;;23.67;35.25;100301.17;102765;1117;80197;-54
2021/05/27 09:37:00;;;;;;;1.70;0.80;;;;;;;24.05;35.31;100304.14;102806;1117;80487;-57
2021/05/27 09:39:07;;;;;;;3.30;1.00;;;;;;;24.53;35.22;100310.08;102798;1117;81836;-56
2021/05/27 09:41:21;;;;;;;1.20;0.70;;;;;;;24.34;34.38;100306.27;102781;1117;80233;-56
2021/05/27 09:43:28;;;;;;;1.00;0.60;;;;;;;24.06;34.59;100308.53;102835;1117;81951;-56
2021/05/27 09:45:37;;;;;;;1.40;0.90;;;;;;;24.14;35.03;100312.70;102803;1117;81362;-57
2021/05/27 09:47:43;;;;;;;1.20;0.70;;;;;;;23.81;35.33;100316.06;102806;1117;81097;-56
2021/05/27 09:49:59;;;;;;;1.60;0.80;;;;;;;23.83;35.49;100317.43;102789;1117;81638;-56
2021/05/27 09:52:19;;;;;;;1.20;0.70;;;;;;;24.15;35.65;100327.31;102783;1117;81737;-56
2021/05/27 09:54:25;;;;;;;2.50;0.90;;;;;;;24.17;34.50;100323.19;102788;1117;81025;-56
2021/05/27 09:56:36;;;;;;;1.80;0.50;;;;;;;24.37;34.60;100322.27;102786;1117;80371;-56
2021/05/27 09:58:52;;;;;;;1.60;0.80;;;;;;;24.51;34.58;100321.39;102662;1117;82120;-56